ΕΜΥ, Εθνική Μετεωρολογική Υπηρεσία - Δελτία Καιρού, Προγνώσεις

ΑΕΡΟΝΑΥΤΙΛΙΑ

GREEK AIRPORTS CODES

TAF LGTG 280800Z 2809/2818 VRB03KT 9999 FEW025 BECMG 2810/2812 17010KT=

EUROPEAN AIRPORTS CODES

LFPO 281000Z 01005KT 290V080 9999 SCT033 17/08 Q1023 NOSIG=